sensor_id;sensor_type;location;lat;lon;timestamp;pressure;altitude;pressure_sealevel;temperature;humidity
27358;BME280;14831;50.474;7.616;2022-09-24T00:03:20;97750;;;8.9;97.6
27358;BME280;14831;50.474;7.616;2022-09-24T00:08:21;97750;;;8.8;97.6
27358;BME280;14831;50.474;7.616;2022-09-24T00:13:20;97750;;;8.8;97.6
27358;BME280;14831;50.474;7.616;2022-09-24T00:18:20;97760;;;8.7;97.5
27358;BME280;14831;50.474;7.616;2022-09-24T00:23:20;97760;;;8.8;97.5
27358;BME280;14831;50.474;7.616;2022-09-24T00:28:20;97750;;;8.7;97.5
27358;BME280;14831;50.474;7.616;2022-09-24T00:33:20;97750;;;8.6;97.5
27358;BME280;14831;50.474;7.616;2022-09-24T00:38:21;97750;;;8.5;97.5
27358;BME280;14831;50.474;7.616;2022-09-24T00:43:21;97750;;;8.5;97.5
27358;BME280;14831;50.474;7.616;2022-09-24T00:48:21;97750;;;8.4;97.5
27358;BME280;14831;50.474;7.616;2022-09-24T00:53:21;97750;;;8.4;97.5
27358;BME280;14831;50.474;7.616;2022-09-24T00:58:20;97740;;;8.4;97.5
27358;BME280;14831;50.474;7.616;2022-09-24T01:03:21;97720;;;8.4;97.5
27358;BME280;14831;50.474;7.616;2022-09-24T01:08:21;97720;;;8.4;97.5
27358;BME280;14831;50.474;7.616;2022-09-24T01:13:25;97700;;;8.3;97.5
27358;BME280;14831;50.474;7.616;2022-09-24T01:18:22;97700;;;8.3;97.5
27358;BME280;14831;50.474;7.616;2022-09-24T01:23:29;97700;;;8.0;97.5
27358;BME280;14831;50.474;7.616;2022-09-24T01:28:26;97700;;;7.8;97.4
27358;BME280;14831;50.474;7.616;2022-09-24T01:33:21;97710;;;7.7;97.4
27358;BME280;14831;50.474;7.616;2022-09-24T01:38:21;97710;;;7.8;97.4
27358;BME280;14831;50.474;7.616;2022-09-24T01:43:21;97690;;;7.8;97.4
27358;BME280;14831;50.474;7.616;2022-09-24T01:48:20;97690;;;7.7;97.5
27358;BME280;14831;50.474;7.616;2022-09-24T01:53:21;97680;;;7.8;97.5
27358;BME280;14831;50.474;7.616;2022-09-24T01:58:22;97670;;;7.9;97.5
27358;BME280;14831;50.474;7.616;2022-09-24T02:03:21;97670;;;7.9;97.5
27358;BME280;14831;50.474;7.616;2022-09-24T02:08:21;97670;;;7.9;97.5
27358;BME280;14831;50.474;7.616;2022-09-24T02:13:20;97670;;;7.8;97.4
27358;BME280;14831;50.474;7.616;2022-09-24T02:18:21;97660;;;7.9;97.4
27358;BME280;14831;50.474;7.616;2022-09-24T02:23:21;97670;;;7.8;97.4
27358;BME280;14831;50.474;7.616;2022-09-24T02:28:20;97660;;;7.8;97.4
27358;BME280;14831;50.474;7.616;2022-09-24T02:33:20;97660;;;7.7;97.4
27358;BME280;14831;50.474;7.616;2022-09-24T02:38:21;97660;;;7.6;97.4
27358;BME280;14831;50.474;7.616;2022-09-24T02:43:20;97650;;;7.6;97.4
27358;BME280;14831;50.474;7.616;2022-09-24T02:48:20;97650;;;7.5;97.4
27358;BME280;14831;50.474;7.616;2022-09-24T02:53:20;97650;;;7.6;97.4
27358;BME280;14831;50.474;7.616;2022-09-24T02:58:20;97650;;;7.6;97.4
27358;BME280;14831;50.474;7.616;2022-09-24T03:03:20;97650;;;7.5;97.3
27358;BME280;14831;50.474;7.616;2022-09-24T03:08:21;97650;;;7.5;97.3
27358;BME280;14831;50.474;7.616;2022-09-24T03:13:20;97660;;;7.5;97.3
27358;BME280;14831;50.474;7.616;2022-09-24T03:18:20;97670;;;7.5;97.3
27358;BME280;14831;50.474;7.616;2022-09-24T03:23:20;97670;;;7.5;97.3
27358;BME280;14831;50.474;7.616;2022-09-24T03:28:20;97670;;;7.4;97.3
27358;BME280;14831;50.474;7.616;2022-09-24T03:33:20;97670;;;7.4;97.3
27358;BME280;14831;50.474;7.616;2022-09-24T03:38:20;97660;;;7.4;97.3
27358;BME280;14831;50.474;7.616;2022-09-24T03:43:21;97650;;;7.5;97.4
27358;BME280;14831;50.474;7.616;2022-09-24T03:48:21;97650;;;7.6;97.4
27358;BME280;14831;50.474;7.616;2022-09-24T03:53:20;97650;;;7.6;97.4
27358;BME280;14831;50.474;7.616;2022-09-24T03:58:20;97650;;;7.7;97.4
27358;BME280;14831;50.474;7.616;2022-09-24T04:03:20;97650;;;7.7;97.4
27358;BME280;14831;50.474;7.616;2022-09-24T04:08:21;97650;;;7.7;97.4
27358;BME280;14831;50.474;7.616;2022-09-24T04:13:20;97650;;;7.7;97.3
27358;BME280;14831;50.474;7.616;2022-09-24T04:18:20;97640;;;7.7;97.4
27358;BME280;14831;50.474;7.616;2022-09-24T04:23:20;97630;;;7.8;97.5
27358;BME280;14831;50.474;7.616;2022-09-24T04:28:20;97620;;;7.7;97.4
27358;BME280;14831;50.474;7.616;2022-09-24T04:33:20;97620;;;7.5;97.3
27358;BME280;14831;50.474;7.616;2022-09-24T04:38:20;97620;;;7.3;97.3
27358;BME280;14831;50.474;7.616;2022-09-24T04:43:20;97610;;;7.3;97.4
27358;BME280;14831;50.474;7.616;2022-09-24T04:48:20;97620;;;7.4;97.4
27358;BME280;14831;50.474;7.616;2022-09-24T04:53:20;97620;;;7.5;97.4
27358;BME280;14831;50.474;7.616;2022-09-24T04:58:20;97620;;;7.6;97.4
27358;BME280;14831;50.474;7.616;2022-09-24T05:03:21;97610;;;7.7;97.4
27358;BME280;14831;50.474;7.616;2022-09-24T05:08:20;97600;;;7.6;97.4
27358;BME280;14831;50.474;7.616;2022-09-24T05:13:20;97600;;;7.5;97.4
27358;BME280;14831;50.474;7.616;2022-09-24T05:18:20;97610;;;7.2;97.3
27358;BME280;14831;50.474;7.616;2022-09-24T05:23:20;97620;;;7.2;97.3
27358;BME280;14831;50.474;7.616;2022-09-24T05:28:20;97620;;;7.3;97.3
27358;BME280;14831;50.474;7.616;2022-09-24T05:33:20;97620;;;7.3;97.3
27358;BME280;14831;50.474;7.616;2022-09-24T05:38:20;97620;;;7.3;97.3
27358;BME280;14831;50.474;7.616;2022-09-24T05:43:20;97620;;;7.2;97.3
27358;BME280;14831;50.474;7.616;2022-09-24T05:48:21;97630;;;7.2;97.4
27358;BME280;14831;50.474;7.616;2022-09-24T05:53:20;97630;;;7.3;97.4
27358;BME280;14831;50.474;7.616;2022-09-24T05:58:20;97630;;;7.3;97.4
27358;BME280;14831;50.474;7.616;2022-09-24T06:03:20;97640;;;7.4;97.4
27358;BME280;14831;50.474;7.616;2022-09-24T06:08:20;97640;;;7.6;97.5
27358;BME280;14831;50.474;7.616;2022-09-24T06:13:20;97640;;;7.9;97.5
27358;BME280;14831;50.474;7.616;2022-09-24T06:18:20;97630;;;8.1;97.5
27358;BME280;14831;50.474;7.616;2022-09-24T06:23:20;97630;;;8.2;97.6
27358;BME280;14831;50.474;7.616;2022-09-24T06:28:20;97630;;;8.4;97.6
27358;BME280;14831;50.474;7.616;2022-09-24T06:33:20;97630;;;8.7;97.7
27358;BME280;14831;50.474;7.616;2022-09-24T06:38:20;97640;;;9.0;97.7
27358;BME280;14831;50.474;7.616;2022-09-24T06:43:20;97640;;;9.2;97.7
27358;BME280;14831;50.474;7.616;2022-09-24T06:48:20;97630;;;9.3;97.8
27358;BME280;14831;50.474;7.616;2022-09-24T06:53:20;97640;;;9.5;97.8
27358;BME280;14831;50.474;7.616;2022-09-24T06:58:20;97640;;;9.6;92.8
27358;BME280;14831;50.474;7.616;2022-09-24T07:03:20;97630;;;9.8;95.2
27358;BME280;14831;50.474;7.616;2022-09-24T07:08:20;97630;;;9.9;94.9
27358;BME280;14831;50.474;7.616;2022-09-24T07:13:20;97630;;;10.0;92.0
27358;BME280;14831;50.474;7.616;2022-09-24T07:18:21;97630;;;10.1;97.8
27358;BME280;14831;50.474;7.616;2022-09-24T07:23:20;97650;;;10.2;95.0
27358;BME280;14831;50.474;7.616;2022-09-24T07:28:20;97650;;;9.9;94.4
27358;BME280;14831;50.474;7.616;2022-09-24T07:33:20;97640;;;9.4;94.9
27358;BME280;14831;50.474;7.616;2022-09-24T07:38:20;97630;;;9.4;97.8
27358;BME280;14831;50.474;7.616;2022-09-24T07:43:20;97640;;;9.7;97.9
27358;BME280;14831;50.474;7.616;2022-09-24T07:48:20;97650;;;9.8;97.8
27358;BME280;14831;50.474;7.616;2022-09-24T07:53:20;97660;;;10.0;97.1
27358;BME280;14831;50.474;7.616;2022-09-24T07:58:20;97650;;;10.3;91.5
27358;BME280;14831;50.474;7.616;2022-09-24T08:03:20;97660;;;10.4;85.4
27358;BME280;14831;50.474;7.616;2022-09-24T08:08:20;97650;;;10.2;82.7
27358;BME280;14831;50.474;7.616;2022-09-24T08:13:20;97650;;;9.9;79.4
27358;BME280;14831;50.474;7.616;2022-09-24T08:18:20;97660;;;10.1;77.1
27358;BME280;14831;50.474;7.616;2022-09-24T08:23:20;97650;;;10.4;71.8
27358;BME280;14831;50.474;7.616;2022-09-24T08:28:20;97650;;;10.8;68.4
27358;BME280;14831;50.474;7.616;2022-09-24T08:33:20;97650;;;11.9;66.5
27358;BME280;14831;50.474;7.616;2022-09-24T08:38:21;97640;;;12.0;62.9
27358;BME280;14831;50.474;7.616;2022-09-24T08:43:23;97630;;;12.5;61.1
27358;BME280;14831;50.474;7.616;2022-09-24T08:48:20;97630;;;13.1;56.5
27358;BME280;14831;50.474;7.616;2022-09-24T08:53:21;97620;;;14.0;59.0
27358;BME280;14831;50.474;7.616;2022-09-24T08:58:24;97610;;;14.5;66.7
27358;BME280;14831;50.474;7.616;2022-09-24T09:03:22;97610;;;13.9;62.5
27358;BME280;14831;50.474;7.616;2022-09-24T09:08:22;97620;;;14.2;74.9
27358;BME280;14831;50.474;7.616;2022-09-24T09:13:22;97630;;;14.1;75.7
27358;BME280;14831;50.474;7.616;2022-09-24T09:18:21;97640;;;14.2;69.3
27358;BME280;14831;50.474;7.616;2022-09-24T09:23:21;97640;;;14.4;67.1
27358;BME280;14831;50.474;7.616;2022-09-24T09:28:21;97640;;;14.5;62.1
27358;BME280;14831;50.474;7.616;2022-09-24T09:33:25;97640;;;14.2;57.9
27358;BME280;14831;50.474;7.616;2022-09-24T09:38:21;97640;;;14.3;60.6
27358;BME280;14831;50.474;7.616;2022-09-24T09:43:21;97640;;;14.7;66.0
27358;BME280;14831;50.474;7.616;2022-09-24T09:48:21;97630;;;14.8;61.8
27358;BME280;14831;50.474;7.616;2022-09-24T09:53:21;97630;;;15.0;62.8
27358;BME280;14831;50.474;7.616;2022-09-24T09:58:21;97630;;;15.2;63.3
27358;BME280;14831;50.474;7.616;2022-09-24T10:03:21;97620;;;15.5;59.3
27358;BME280;14831;50.474;7.616;2022-09-24T10:08:21;97620;;;15.5;59.3
27358;BME280;14831;50.474;7.616;2022-09-24T10:13:20;97620;;;15.7;66.7
27358;BME280;14831;50.474;7.616;2022-09-24T10:18:25;97610;;;15.7;57.2
27358;BME280;14831;50.474;7.616;2022-09-24T10:23:21;97600;;;15.7;59.3
27358;BME280;14831;50.474;7.616;2022-09-24T10:28:20;97600;;;16.0;61.3
27358;BME280;14831;50.474;7.616;2022-09-24T10:33:20;97590;;;15.9;56.2
27358;BME280;14831;50.474;7.616;2022-09-24T10:38:20;97590;;;16.2;64.5
27358;BME280;14831;50.474;7.616;2022-09-24T10:43:20;97590;;;15.9;57.5
27358;BME280;14831;50.474;7.616;2022-09-24T10:48:21;97600;;;16.3;65.9
27358;BME280;14831;50.474;7.616;2022-09-24T10:53:23;97600;;;16.2;62.0
27358;BME280;14831;50.474;7.616;2022-09-24T10:58:28;97600;;;16.1;64.3
27358;BME280;14831;50.474;7.616;2022-09-24T11:03:31;97600;;;16.1;67.3
27358;BME280;14831;50.474;7.616;2022-09-24T11:08:23;97600;;;16.1;64.6
27358;BME280;14831;50.474;7.616;2022-09-24T11:13:22;97600;;;16.1;65.7
27358;BME280;14831;50.474;7.616;2022-09-24T11:18:26;97590;;;16.2;63.9
27358;BME280;14831;50.474;7.616;2022-09-24T11:23:25;97600;;;16.2;63.0
27358;BME280;14831;50.474;7.616;2022-09-24T11:28:28;97590;;;16.2;67.0
27358;BME280;14831;50.474;7.616;2022-09-24T11:33:24;97590;;;16.1;66.4
27358;BME280;14831;50.474;7.616;2022-09-24T11:38:22;97590;;;16.1;64.8
27358;BME280;14831;50.474;7.616;2022-09-24T11:43:27;97590;;;16.0;62.8
27358;BME280;14831;50.474;7.616;2022-09-24T11:48:24;97590;;;16.1;67.2
27358;BME280;14831;50.474;7.616;2022-09-24T11:53:23;97580;;;16.1;64.1
27358;BME280;14831;50.474;7.616;2022-09-24T11:58:22;97580;;;16.1;63.5
27358;BME280;14831;50.474;7.616;2022-09-24T12:03:21;97580;;;16.0;61.8
27358;BME280;14831;50.474;7.616;2022-09-24T12:08:22;97570;;;15.9;55.4
27358;BME280;14831;50.474;7.616;2022-09-24T12:13:21;97570;;;16.0;54.5
27358;BME280;14831;50.474;7.616;2022-09-24T12:18:22;97560;;;16.2;59.9
27358;BME280;14831;50.474;7.616;2022-09-24T12:23:21;97550;;;16.3;63.7
27358;BME280;14831;50.474;7.616;2022-09-24T12:28:21;97550;;;16.2;64.1
27358;BME280;14831;50.474;7.616;2022-09-24T12:33:21;97530;;;16.3;52.2
27358;BME280;14831;50.474;7.616;2022-09-24T12:38:22;97540;;;16.4;51.9
27358;BME280;14831;50.474;7.616;2022-09-24T12:43:22;97540;;;16.5;54.4
27358;BME280;14831;50.474;7.616;2022-09-24T12:48:20;97540;;;16.5;57.7
27358;BME280;14831;50.474;7.616;2022-09-24T12:53:21;97540;;;16.4;54.8
27358;BME280;14831;50.474;7.616;2022-09-24T12:58:25;97530;;;16.4;61.9
27358;BME280;14831;50.474;7.616;2022-09-24T13:03:29;97530;;;16.5;63.0
27358;BME280;14831;50.474;7.616;2022-09-24T13:08:22;97540;;;16.5;55.3
27358;BME280;14831;50.474;7.616;2022-09-24T13:13:21;97530;;;16.4;54.8
27358;BME280;14831;50.474;7.616;2022-09-24T13:18:21;97530;;;16.3;53.3
27358;BME280;14831;50.474;7.616;2022-09-24T13:23:28;97530;;;16.3;53.6
27358;BME280;14831;50.474;7.616;2022-09-24T13:28:22;97530;;;16.2;54.6
27358;BME280;14831;50.474;7.616;2022-09-24T13:33:22;97530;;;16.1;56.4
27358;BME280;14831;50.474;7.616;2022-09-24T13:38:21;97530;;;16.1;59.2
27358;BME280;14831;50.474;7.616;2022-09-24T13:43:31;97530;;;15.9;61.0
27358;BME280;14831;50.474;7.616;2022-09-24T13:48:24;97520;;;16.0;62.0
27358;BME280;14831;50.474;7.616;2022-09-24T13:53:22;97530;;;16.0;62.4
27358;BME280;14831;50.474;7.616;2022-09-24T13:58:25;97530;;;16.1;63.1
27358;BME280;14831;50.474;7.616;2022-09-24T14:03:21;97530;;;16.1;63.2
27358;BME280;14831;50.474;7.616;2022-09-24T14:08:21;97520;;;16.1;61.4
27358;BME280;14831;50.474;7.616;2022-09-24T14:13:21;97520;;;16.0;62.7
27358;BME280;14831;50.474;7.616;2022-09-24T14:18:21;97520;;;15.8;64.1
27358;BME280;14831;50.474;7.616;2022-09-24T14:23:20;97520;;;15.8;63.9
27358;BME280;14831;50.474;7.616;2022-09-24T14:28:20;97510;;;15.8;63.7
27358;BME280;14831;50.474;7.616;2022-09-24T14:33:21;97520;;;15.7;64.9
27358;BME280;14831;50.474;7.616;2022-09-24T14:38:21;97520;;;15.6;67.2
27358;BME280;14831;50.474;7.616;2022-09-24T14:43:21;97530;;;15.5;71.3
27358;BME280;14831;50.474;7.616;2022-09-24T14:48:24;97530;;;15.1;75.3
27358;BME280;14831;50.474;7.616;2022-09-24T14:53:21;97530;;;14.9;81.6
27358;BME280;14831;50.474;7.616;2022-09-24T14:58:22;97550;;;14.9;86.5
27358;BME280;14831;50.474;7.616;2022-09-24T15:03:23;97540;;;14.8;89.6
27358;BME280;14831;50.474;7.616;2022-09-24T15:08:24;97550;;;14.3;91.6
27358;BME280;14831;50.474;7.616;2022-09-24T15:13:22;97550;;;13.9;92.2
27358;BME280;14831;50.474;7.616;2022-09-24T15:18:20;97550;;;13.8;94.0
27358;BME280;14831;50.474;7.616;2022-09-24T15:23:20;97550;;;13.6;95.6
27358;BME280;14831;50.474;7.616;2022-09-24T15:28:20;97560;;;13.6;97.9
27358;BME280;14831;50.474;7.616;2022-09-24T15:33:21;97560;;;13.6;98.4
27358;BME280;14831;50.474;7.616;2022-09-24T15:38:20;97560;;;13.5;98.3
27358;BME280;14831;50.474;7.616;2022-09-24T15:43:21;97560;;;13.3;98.3
27358;BME280;14831;50.474;7.616;2022-09-24T15:48:20;97560;;;13.3;98.3
27358;BME280;14831;50.474;7.616;2022-09-24T15:53:21;97570;;;13.3;98.3
27358;BME280;14831;50.474;7.616;2022-09-24T15:58:21;97570;;;13.4;98.3
27358;BME280;14831;50.474;7.616;2022-09-24T16:03:22;97560;;;13.3;98.3
27358;BME280;14831;50.474;7.616;2022-09-24T16:08:20;97570;;;13.2;98.3
27358;BME280;14831;50.474;7.616;2022-09-24T16:13:20;97580;;;13.2;98.2
27358;BME280;14831;50.474;7.616;2022-09-24T16:18:20;97590;;;13.1;98.2
27358;BME280;14831;50.474;7.616;2022-09-24T16:23:21;97580;;;12.9;98.2
27358;BME280;14831;50.474;7.616;2022-09-24T16:28:20;97580;;;12.7;98.2
27358;BME280;14831;50.474;7.616;2022-09-24T16:33:20;97580;;;12.7;98.2
27358;BME280;14831;50.474;7.616;2022-09-24T16:38:20;97580;;;12.7;98.2
27358;BME280;14831;50.474;7.616;2022-09-24T16:43:20;97590;;;12.6;98.1
27358;BME280;14831;50.474;7.616;2022-09-24T16:48:20;97580;;;12.5;98.1
27358;BME280;14831;50.474;7.616;2022-09-24T16:53:20;97580;;;12.5;98.1
27358;BME280;14831;50.474;7.616;2022-09-24T16:58:20;97580;;;12.5;98.1
27358;BME280;14831;50.474;7.616;2022-09-24T17:03:21;97590;;;12.5;98.1
27358;BME280;14831;50.474;7.616;2022-09-24T17:08:21;97590;;;12.5;98.1
27358;BME280;14831;50.474;7.616;2022-09-24T17:13:20;97600;;;12.6;98.1
27358;BME280;14831;50.474;7.616;2022-09-24T17:18:21;97590;;;12.5;98.1
27358;BME280;14831;50.474;7.616;2022-09-24T17:23:21;97590;;;12.4;98.1
27358;BME280;14831;50.474;7.616;2022-09-24T17:28:20;97590;;;12.4;98.1
27358;BME280;14831;50.474;7.616;2022-09-24T17:33:20;97590;;;12.4;98.1
27358;BME280;14831;50.474;7.616;2022-09-24T17:38:20;97600;;;12.3;98.1
27358;BME280;14831;50.474;7.616;2022-09-24T17:43:20;97590;;;12.3;98.1
27358;BME280;14831;50.474;7.616;2022-09-24T17:48:20;97590;;;12.2;98.1
27358;BME280;14831;50.474;7.616;2022-09-24T17:53:21;97600;;;12.2;98.1
27358;BME280;14831;50.474;7.616;2022-09-24T17:58:21;97600;;;12.1;98.1
27358;BME280;14831;50.474;7.616;2022-09-24T18:03:20;97600;;;12.1;98.1
27358;BME280;14831;50.474;7.616;2022-09-24T18:08:21;97600;;;12.1;98.1
27358;BME280;14831;50.474;7.616;2022-09-24T18:13:21;97600;;;12.0;98.1
27358;BME280;14831;50.474;7.616;2022-09-24T18:18:20;97600;;;12.0;98.1
27358;BME280;14831;50.474;7.616;2022-09-24T18:23:20;97600;;;12.0;98.1
27358;BME280;14831;50.474;7.616;2022-09-24T18:28:21;97610;;;12.0;98.0
27358;BME280;14831;50.474;7.616;2022-09-24T18:33:21;97610;;;12.0;98.0
27358;BME280;14831;50.474;7.616;2022-09-24T18:38:20;97610;;;12.1;98.0
27358;BME280;14831;50.474;7.616;2022-09-24T18:43:21;97620;;;12.0;98.0
27358;BME280;14831;50.474;7.616;2022-09-24T18:48:20;97610;;;12.0;98.0
27358;BME280;14831;50.474;7.616;2022-09-24T18:53:20;97620;;;12.0;98.0
27358;BME280;14831;50.474;7.616;2022-09-24T18:58:20;97620;;;12.1;98.0
27358;BME280;14831;50.474;7.616;2022-09-24T19:03:20;97620;;;12.1;98.0
27358;BME280;14831;50.474;7.616;2022-09-24T19:08:21;97620;;;12.1;98.0
27358;BME280;14831;50.474;7.616;2022-09-24T19:13:21;97620;;;12.1;98.0
27358;BME280;14831;50.474;7.616;2022-09-24T19:18:21;97630;;;12.1;98.0
27358;BME280;14831;50.474;7.616;2022-09-24T19:23:21;97630;;;12.1;98.0
27358;BME280;14831;50.474;7.616;2022-09-24T19:28:21;97640;;;12.1;98.0
27358;BME280;14831;50.474;7.616;2022-09-24T19:33:21;97630;;;12.1;98.0
27358;BME280;14831;50.474;7.616;2022-09-24T19:38:21;97640;;;12.1;98.0
27358;BME280;14831;50.474;7.616;2022-09-24T19:43:21;97640;;;12.1;98.0
27358;BME280;14831;50.474;7.616;2022-09-24T19:48:20;97630;;;12.0;98.0
27358;BME280;14831;50.474;7.616;2022-09-24T19:53:21;97640;;;11.9;98.0
27358;BME280;14831;50.474;7.616;2022-09-24T19:58:21;97630;;;11.9;98.0
27358;BME280;14831;50.474;7.616;2022-09-24T20:03:21;97640;;;11.9;98.0
27358;BME280;14831;50.474;7.616;2022-09-24T20:08:20;97640;;;12.0;98.0
27358;BME280;14831;50.474;7.616;2022-09-24T20:13:20;97640;;;11.9;98.0
27358;BME280;14831;50.474;7.616;2022-09-24T20:18:20;97650;;;11.9;98.0
27358;BME280;14831;50.474;7.616;2022-09-24T20:23:20;97640;;;11.9;98.0
27358;BME280;14831;50.474;7.616;2022-09-24T20:28:21;97640;;;11.9;98.0
27358;BME280;14831;50.474;7.616;2022-09-24T20:33:21;97640;;;11.9;98.0
27358;BME280;14831;50.474;7.616;2022-09-24T20:38:20;97650;;;11.9;98.0
27358;BME280;14831;50.474;7.616;2022-09-24T20:43:20;97650;;;11.9;98.0
27358;BME280;14831;50.474;7.616;2022-09-24T20:48:20;97650;;;11.9;98.0
27358;BME280;14831;50.474;7.616;2022-09-24T20:53:20;97650;;;11.7;98.0
27358;BME280;14831;50.474;7.616;2022-09-24T20:58:21;97650;;;11.7;98.0
27358;BME280;14831;50.474;7.616;2022-09-24T21:03:20;97650;;;11.8;98.0
27358;BME280;14831;50.474;7.616;2022-09-24T21:08:20;97660;;;11.8;98.0
27358;BME280;14831;50.474;7.616;2022-09-24T21:13:20;97650;;;11.9;98.0
27358;BME280;14831;50.474;7.616;2022-09-24T21:18:20;97660;;;11.9;98.0
27358;BME280;14831;50.474;7.616;2022-09-24T21:23:20;97660;;;11.8;98.0
27358;BME280;14831;50.474;7.616;2022-09-24T21:28:20;97660;;;11.8;98.0
27358;BME280;14831;50.474;7.616;2022-09-24T21:33:20;97660;;;11.9;98.0
27358;BME280;14831;50.474;7.616;2022-09-24T21:38:20;97670;;;11.8;98.0
27358;BME280;14831;50.474;7.616;2022-09-24T21:43:20;97670;;;11.8;98.0
27358;BME280;14831;50.474;7.616;2022-09-24T21:48:20;97670;;;11.8;98.0
27358;BME280;14831;50.474;7.616;2022-09-24T21:53:20;97670;;;11.9;98.0
27358;BME280;14831;50.474;7.616;2022-09-24T21:58:20;97670;;;11.9;98.0
27358;BME280;14831;50.474;7.616;2022-09-24T22:03:20;97670;;;12.0;98.0
27358;BME280;14831;50.474;7.616;2022-09-24T22:08:20;97670;;;12.0;98.0
27358;BME280;14831;50.474;7.616;2022-09-24T22:13:20;97670;;;12.0;98.0
27358;BME280;14831;50.474;7.616;2022-09-24T22:18:20;97670;;;12.0;98.0
27358;BME280;14831;50.474;7.616;2022-09-24T22:23:20;97680;;;11.8;98.0
27358;BME280;14831;50.474;7.616;2022-09-24T22:28:20;97670;;;11.8;98.0
27358;BME280;14831;50.474;7.616;2022-09-24T22:33:20;97670;;;11.8;98.0
27358;BME280;14831;50.474;7.616;2022-09-24T22:38:20;97680;;;11.7;98.0
27358;BME280;14831;50.474;7.616;2022-09-24T22:43:20;97670;;;11.8;98.0
27358;BME280;14831;50.474;7.616;2022-09-24T22:48:20;97670;;;11.8;98.0
27358;BME280;14831;50.474;7.616;2022-09-24T22:53:20;97670;;;11.7;98.0
27358;BME280;14831;50.474;7.616;2022-09-24T22:58:20;97670;;;11.7;98.0
27358;BME280;14831;50.474;7.616;2022-09-24T23:03:20;97660;;;11.7;98.0
27358;BME280;14831;50.474;7.616;2022-09-24T23:08:20;97660;;;11.7;98.0
27358;BME280;14831;50.474;7.616;2022-09-24T23:13:20;97660;;;11.7;98.0
27358;BME280;14831;50.474;7.616;2022-09-24T23:18:20;97660;;;11.6;98.0
27358;BME280;14831;50.474;7.616;2022-09-24T23:23:20;97660;;;11.5;98.0
27358;BME280;14831;50.474;7.616;2022-09-24T23:28:20;97660;;;11.6;98.0
27358;BME280;14831;50.474;7.616;2022-09-24T23:33:20;97650;;;11.5;98.0
27358;BME280;14831;50.474;7.616;2022-09-24T23:38:20;97660;;;11.5;98.0
27358;BME280;14831;50.474;7.616;2022-09-24T23:43:20;97660;;;11.5;98.0
27358;BME280;14831;50.474;7.616;2022-09-24T23:48:20;97670;;;11.4;98.0
27358;BME280;14831;50.474;7.616;2022-09-24T23:53:20;97670;;;11.4;98.0
27358;BME280;14831;50.474;7.616;2022-09-24T23:58:21;97670;;;11.4;98.0
